createdAt,value
2018-02-22T00:01:24.115Z,21.30
2018-02-22T00:03:53.980Z,22.90
2018-02-22T00:06:31.796Z,21.23
2018-02-22T00:09:00.619Z,19.77
2018-02-22T00:11:29.247Z,23.73
2018-02-22T00:13:57.836Z,19.53
2018-02-22T00:16:26.332Z,23.40
2018-02-22T00:18:54.923Z,21.50
2018-02-22T00:21:23.604Z,20.97
2018-02-22T00:23:52.185Z,20.83
2018-02-22T00:26:20.983Z,21.73
2018-02-22T00:28:49.849Z,24.07
2018-02-22T00:31:18.522Z,24.90
2018-02-22T00:33:47.121Z,23.17
2018-02-22T00:36:15.677Z,21.40
2018-02-22T00:38:44.237Z,30.07
2018-02-22T00:41:12.842Z,22.60
2018-02-22T00:43:41.527Z,23.23
2018-02-22T00:46:10.101Z,22.97
2018-02-22T00:48:41.846Z,25.20
2018-02-22T00:51:10.788Z,19.63
2018-02-22T00:53:39.461Z,23.97
2018-02-22T00:56:08.215Z,21.17
2018-02-22T00:58:37.065Z,22.50
2018-02-22T01:01:05.869Z,18.93
2018-02-22T01:03:34.428Z,26.83
2018-02-22T01:06:03.847Z,22.73
2018-02-22T01:08:32.379Z,23.10
2018-02-22T01:11:01.089Z,24.57
2018-02-22T01:13:29.708Z,24.23
2018-02-22T01:15:58.351Z,23.60
2018-02-22T01:18:27.314Z,24.67
2018-02-22T01:20:58.884Z,21.17
2018-02-22T01:23:27.359Z,22.20
2018-02-22T01:25:56.133Z,22.20
2018-02-22T01:28:24.984Z,30.60
2018-02-22T01:30:53.536Z,20.50
2018-02-22T01:33:22.290Z,23.90
2018-02-22T01:35:50.863Z,26.53
2018-02-22T01:38:19.388Z,27.03
2018-02-22T01:40:47.996Z,23.70
2018-02-22T01:43:16.591Z,24.93
2018-02-22T01:45:45.104Z,23.50
2018-02-22T01:48:13.895Z,23.30
2018-02-22T01:50:43.574Z,22.80
2018-02-22T01:53:12.201Z,22.43
2018-02-22T01:55:40.936Z,27.47
2018-02-22T01:58:09.751Z,26.30
2018-02-22T02:00:38.608Z,24.47
2018-02-22T02:03:07.419Z,25.00
2018-02-22T02:05:36.485Z,24.23
2018-02-22T02:08:05.185Z,26.53
2018-02-22T02:10:33.889Z,30.60
2018-02-22T02:13:03.095Z,26.23
2018-02-22T02:15:31.688Z,21.50
2018-02-22T02:18:00.264Z,23.17
2018-02-22T02:20:29.120Z,24.97
2018-02-22T02:22:58.620Z,22.83
2018-02-22T02:25:27.129Z,26.50
2018-02-22T02:27:59.972Z,21.90
2018-02-22T02:30:28.828Z,24.47
2018-02-22T02:32:57.645Z,25.27
2018-02-22T02:35:26.290Z,22.97
2018-02-22T02:37:55.228Z,27.90
2018-02-22T02:40:23.833Z,25.43
2018-02-22T02:42:53.043Z,23.00
2018-02-22T02:45:21.773Z,19.93
2018-02-22T02:47:50.282Z,27.00
2018-02-22T02:50:19.168Z,24.80
2018-02-22T02:52:48.004Z,25.73
2018-02-22T02:55:16.861Z,26.40
2018-02-22T02:57:45.430Z,24.43
2018-02-22T03:00:13.967Z,24.00
2018-02-22T03:02:42.840Z,24.40
2018-02-22T03:05:12.513Z,28.07
2018-02-22T03:07:41.781Z,24.80
2018-02-22T03:10:10.283Z,23.47
2018-02-22T03:12:39.143Z,24.93
2018-02-22T03:15:07.648Z,23.23
2018-02-22T03:17:36.341Z,28.40
2018-02-22T03:20:05.151Z,25.73
2018-02-22T03:22:33.856Z,24.97
2018-02-22T03:25:02.399Z,21.73
2018-02-22T03:27:31.105Z,22.33
2018-02-22T03:29:59.648Z,25.57
2018-02-22T03:32:28.441Z,33.73
2018-02-22T03:34:57.255Z,25.23
2018-02-22T03:37:25.821Z,24.73
2018-02-22T03:39:54.309Z,25.93
2018-02-22T03:42:23.353Z,25.27
2018-02-22T03:44:52.053Z,23.47
2018-02-22T03:47:20.976Z,27.10
2018-02-22T03:49:49.770Z,25.80
2018-02-22T03:52:18.677Z,24.63
2018-02-22T03:54:47.177Z,24.40
2018-02-22T03:57:15.918Z,26.83
2018-02-22T03:59:44.929Z,32.57
2018-02-22T04:02:13.921Z,24.63
2018-02-22T04:04:42.994Z,28.53
2018-02-22T04:07:11.663Z,27.50
2018-02-22T04:09:40.396Z,25.17
2018-02-22T04:12:09.872Z,28.90
2018-02-22T04:14:38.764Z,26.17
2018-02-22T04:17:10.904Z,27.97
2018-02-22T04:19:39.838Z,28.10
2018-02-22T04:22:08.915Z,26.90
2018-02-22T04:24:37.817Z,26.40
2018-02-22T04:27:06.321Z,31.30
2018-02-22T04:29:34.905Z,33.33
2018-02-22T04:32:04.179Z,26.40
2018-02-22T04:34:32.878Z,26.30
2018-02-22T04:37:02.121Z,27.70
2018-02-22T04:39:30.917Z,28.13
2018-02-22T04:41:59.848Z,27.27
2018-02-22T04:44:28.568Z,25.20
2018-02-22T04:46:57.248Z,27.83
2018-02-22T04:49:25.945Z,26.77
2018-02-22T04:51:54.651Z,30.50
2018-02-22T04:54:23.311Z,30.57
2018-02-22T04:56:51.968Z,26.17
2018-02-22T04:59:20.828Z,31.37
2018-02-22T05:04:44.802Z,25.10
2018-02-22T05:07:13.255Z,28.10
2018-02-22T05:09:41.803Z,25.23
2018-02-22T05:12:10.103Z,29.30
2018-02-22T05:14:38.917Z,35.00
2018-02-22T05:17:07.255Z,26.00
2018-02-22T05:19:42.716Z,31.20
2018-02-22T05:22:13.111Z,29.03
2018-02-22T05:24:42.376Z,27.80
2018-02-22T05:27:11.844Z,27.43
2018-02-22T05:29:41.421Z,31.40
2018-02-22T05:32:12.409Z,26.53
2018-02-22T05:34:41.062Z,30.20
2018-02-22T05:37:09.419Z,30.30
2018-02-22T05:39:37.731Z,28.17
2018-02-22T05:42:06.063Z,31.87
2018-02-22T05:44:36.330Z,27.60
2018-02-22T05:47:04.672Z,28.97
2018-02-22T05:49:33.118Z,26.00
2018-02-22T05:52:01.430Z,32.60
2018-02-22T05:54:30.035Z,29.70
2018-02-22T05:56:58.497Z,34.53
2018-02-22T05:59:27.160Z,35.17
2018-02-22T06:01:55.543Z,34.50
2018-02-22T06:04:24.008Z,33.73
2018-02-22T06:06:52.327Z,30.87
2018-02-22T06:09:20.587Z,29.07
2018-02-22T06:11:48.887Z,30.67
2018-02-22T06:14:17.221Z,32.70
2018-02-22T06:16:45.555Z,26.20
2018-02-22T06:19:13.924Z,30.33
2018-02-22T06:21:42.367Z,37.43
2018-02-22T06:24:10.622Z,33.77
2018-02-22T06:26:39.125Z,31.13
2018-02-22T06:29:07.568Z,37.17
2018-02-22T06:31:35.888Z,31.23
2018-02-22T06:34:04.187Z,26.67
2018-02-22T06:36:32.495Z,27.87
2018-02-22T06:39:00.795Z,39.17
2018-02-22T06:41:29.183Z,43.23
2018-02-22T06:43:57.775Z,38.07
2018-02-22T06:46:26.311Z,43.30
2018-02-22T06:48:54.631Z,45.10
2018-02-22T06:51:22.972Z,39.23
2018-02-22T06:53:51.284Z,41.33
2018-02-22T06:56:19.595Z,37.40
2018-02-22T06:58:48.124Z,35.70
2018-02-22T07:01:16.628Z,32.63
2018-02-22T07:03:44.928Z,34.70
2018-02-22T07:06:13.395Z,35.23
2018-02-22T07:08:41.664Z,34.53
2018-02-22T07:11:09.960Z,34.47
2018-02-22T07:13:38.449Z,34.77
2018-02-22T07:16:06.765Z,37.80
2018-02-22T07:18:35.097Z,30.43
2018-02-22T07:21:03.447Z,34.30
2018-02-22T07:23:31.739Z,35.07
2018-02-22T07:26:01.224Z,42.73
2018-02-22T07:28:29.711Z,40.50
2018-02-22T07:30:58.193Z,34.77
2018-02-22T07:33:26.545Z,33.50
2018-02-22T07:35:54.962Z,36.30
2018-02-22T07:38:23.254Z,36.87
2018-02-22T07:40:51.823Z,37.27
2018-02-22T07:43:20.184Z,40.63
2018-02-22T07:45:49.291Z,38.00
2018-02-22T07:48:17.583Z,38.47
2018-02-22T07:50:45.987Z,40.20
2018-02-22T07:53:14.278Z,34.00
2018-02-22T07:55:42.599Z,37.03
2018-02-22T07:58:10.891Z,43.53
2018-02-22T08:00:40.146Z,34.63
2018-02-22T08:03:08.979Z,38.80
2018-02-22T08:05:37.334Z,39.13
2018-02-22T08:08:06.269Z,38.17
2018-02-22T08:10:34.919Z,38.90
2018-02-22T08:13:03.274Z,33.40
2018-02-22T08:15:32.770Z,39.03
2018-02-22T08:18:01.104Z,35.60
2018-02-22T08:20:29.562Z,45.03
2018-02-22T08:23:00.102Z,42.60
2018-02-22T08:25:28.488Z,33.67
2018-02-22T08:27:56.746Z,41.83
2018-02-22T08:30:25.233Z,34.73
2018-02-22T08:32:53.655Z,40.47
2018-02-22T08:35:22.242Z,38.37
2018-02-22T08:37:50.585Z,41.30
2018-02-22T08:40:19.146Z,36.80
2018-02-22T08:42:47.602Z,32.30
2018-02-22T08:45:16.029Z,33.37
2018-02-22T08:47:44.323Z,32.00
2018-02-22T08:50:12.743Z,34.17
2018-02-22T08:52:41.064Z,35.00
2018-02-22T08:55:09.618Z,34.43
2018-02-22T08:57:37.989Z,28.23
2018-02-22T09:00:09.855Z,34.90
2018-02-22T09:02:38.158Z,29.40
2018-02-22T09:05:06.549Z,28.93
2018-02-22T09:07:34.898Z,35.70
2018-02-22T09:10:04.119Z,29.60
2018-02-22T09:12:32.480Z,29.77
2018-02-22T09:15:00.771Z,28.17
2018-02-22T09:17:29.182Z,32.33
2018-02-22T09:19:57.525Z,29.10
2018-02-22T09:22:25.941Z,28.03
2018-02-22T09:24:54.230Z,30.30
2018-02-22T09:27:22.529Z,34.93
2018-02-22T09:29:50.979Z,32.83
2018-02-22T09:32:19.516Z,27.33
2018-02-22T09:34:49.395Z,28.53
2018-02-22T09:37:17.962Z,29.67
2018-02-22T09:39:46.512Z,25.33
2018-02-22T09:42:15.073Z,31.57
2018-02-22T09:44:47.750Z,29.90
2018-02-22T09:47:16.323Z,25.50
2018-02-22T09:49:46.791Z,21.83
2018-02-22T09:52:15.357Z,21.77
2018-02-22T09:54:43.988Z,22.30
2018-02-22T09:57:12.602Z,21.47
2018-02-22T09:59:40.993Z,28.30
2018-02-22T10:02:09.503Z,25.30
2018-02-22T10:04:39.698Z,25.60
2018-02-22T10:07:09.089Z,22.83
2018-02-22T10:09:37.463Z,22.80
2018-02-22T10:12:05.815Z,21.13
2018-02-22T10:14:34.594Z,28.63
2018-02-22T10:17:04.285Z,24.03
2018-02-22T10:19:32.984Z,30.67
2018-02-22T10:22:09.065Z,24.43
2018-02-22T10:24:37.672Z,25.23
2018-02-22T10:27:06.592Z,22.03
2018-02-22T10:29:35.855Z,22.93
2018-02-22T10:32:04.600Z,22.27
2018-02-22T10:34:33.448Z,20.40
2018-02-22T10:37:02.739Z,20.73
2018-02-22T10:39:33.497Z,17.77
2018-02-22T10:42:02.872Z,18.50
2018-02-22T10:44:31.200Z,21.03
2018-02-22T10:47:00.976Z,20.07
2018-02-22T10:49:29.749Z,25.60
2018-02-22T10:52:05.024Z,21.60
2018-02-22T10:54:33.369Z,18.07
2018-02-22T10:57:01.784Z,14.87
2018-02-22T10:59:30.202Z,16.90
2018-02-22T11:03:05.588Z,20.50
2018-02-22T11:05:33.967Z,20.00
2018-02-22T11:08:02.314Z,20.87
2018-02-22T11:10:30.707Z,16.70
2018-02-22T11:12:59.011Z,20.83
2018-02-22T11:15:27.389Z,18.20
2018-02-22T11:17:55.760Z,17.50
2018-02-22T11:20:24.488Z,17.77
2018-02-22T11:22:52.843Z,16.57
2018-02-22T11:25:21.164Z,16.00
2018-02-22T11:27:49.494Z,20.30
2018-02-22T11:30:18.056Z,19.03
2018-02-22T11:32:46.639Z,16.70
2018-02-22T11:35:18.017Z,11.30
2018-02-22T11:37:47.115Z,11.27
2018-02-22T11:40:18.165Z,13.80
2018-02-22T11:42:46.843Z,16.47
2018-02-22T11:45:17.588Z,14.30
2018-02-22T11:47:47.215Z,18.03
2018-02-22T11:50:16.024Z,11.63
2018-02-22T11:52:44.591Z,11.53
2018-02-22T11:55:13.003Z,14.27
2018-02-22T11:57:41.291Z,16.70
2018-02-22T12:00:09.735Z,13.93
2018-02-22T12:02:38.403Z,11.80
2018-02-22T12:05:06.759Z,16.03
2018-02-22T12:07:35.067Z,11.03
2018-02-22T12:10:03.484Z,13.40
2018-02-22T12:12:31.917Z,12.70
2018-02-22T12:15:00.166Z,7.80
2018-02-22T12:17:29.847Z,10.03
2018-02-22T12:19:58.487Z,11.63
2018-02-22T12:22:26.918Z,11.93
2018-02-22T12:24:55.214Z,12.50
2018-02-22T12:27:23.570Z,11.30
2018-02-22T12:29:51.864Z,10.57
2018-02-22T12:32:20.598Z,11.83
2018-02-22T12:34:48.887Z,10.10
2018-02-22T12:37:17.359Z,11.07
2018-02-22T12:39:45.847Z,17.03
2018-02-22T12:42:14.482Z,16.53
2018-02-22T12:44:43.064Z,11.00
2018-02-22T12:47:11.442Z,11.13
2018-02-22T12:49:39.807Z,12.80
2018-02-22T12:52:08.435Z,12.50
2018-02-22T12:54:37.005Z,9.10
2018-02-22T12:57:05.314Z,12.73
2018-02-22T12:59:33.597Z,14.60
2018-02-22T13:02:01.899Z,12.40
2018-02-22T13:04:30.514Z,12.23
2018-02-22T13:07:00.081Z,13.30
2018-02-22T13:09:29.388Z,15.90
2018-02-22T13:11:57.743Z,13.90
2018-02-22T13:14:26.048Z,11.17
2018-02-22T13:16:54.368Z,14.40
2018-02-22T13:19:24.155Z,12.47
2018-02-22T13:21:52.687Z,12.10
2018-02-22T13:24:21.120Z,20.63
2018-02-22T13:26:49.487Z,15.20
2018-02-22T13:29:17.824Z,21.17
2018-02-22T13:31:46.159Z,15.20
2018-02-22T13:34:26.688Z,16.73
2018-02-22T13:36:55.056Z,22.57
2018-02-22T13:39:23.364Z,19.27
2018-02-22T13:41:51.747Z,18.80
2018-02-22T13:44:30.068Z,13.17
2018-02-22T13:46:58.412Z,23.43
2018-02-22T13:51:36.783Z,17.27
2018-02-22T13:54:05.080Z,13.63
2018-02-22T13:57:46.801Z,16.87
2018-02-22T14:00:24.091Z,14.60
2018-02-22T14:02:52.335Z,17.17
2018-02-22T14:05:20.673Z,15.30
2018-02-22T14:07:48.970Z,18.50
2018-02-22T14:10:17.709Z,16.67
2018-02-22T14:12:46.063Z,17.80
2018-02-22T14:15:14.531Z,20.40
2018-02-22T14:17:43.005Z,16.20
2018-02-22T14:20:11.304Z,20.47
2018-02-22T14:22:39.862Z,19.90
2018-02-22T14:25:08.221Z,23.13
2018-02-22T14:27:36.923Z,20.23
2018-02-22T14:30:05.421Z,18.10
2018-02-22T14:32:33.767Z,15.27
2018-02-22T14:35:02.169Z,17.97
2018-02-22T14:37:30.519Z,13.83
2018-02-22T14:39:58.801Z,18.40
2018-02-22T14:42:27.220Z,14.73
2018-02-22T14:44:55.576Z,14.87
2018-02-22T14:47:23.910Z,13.90
2018-02-22T14:49:52.223Z,10.53
2018-02-22T14:52:20.573Z,15.03
2018-02-22T14:54:48.863Z,15.70
2018-02-22T14:57:17.434Z,12.70
2018-02-22T14:59:45.737Z,12.70
2018-02-22T15:02:19.416Z,11.70
2018-02-22T15:04:47.714Z,15.30
2018-02-22T15:07:16.034Z,11.60
2018-02-22T15:09:44.377Z,18.77
2018-02-22T15:12:13.643Z,13.40
2018-02-22T15:14:41.959Z,11.70
2018-02-22T15:17:10.262Z,13.97
2018-02-22T15:19:38.786Z,12.47
2018-02-22T15:22:07.152Z,11.60
2018-02-22T15:24:35.913Z,12.70
2018-02-22T15:27:04.267Z,16.57
2018-02-22T15:29:32.555Z,13.17
2018-02-22T15:32:00.871Z,14.90
2018-02-22T15:34:29.432Z,16.13
2018-02-22T15:36:57.948Z,14.23
2018-02-22T15:39:26.364Z,13.30
2018-02-22T15:41:55.017Z,15.10
2018-02-22T15:44:23.801Z,10.00
2018-02-22T15:46:52.831Z,17.87
2018-02-22T15:49:21.241Z,12.10
2018-02-22T15:51:49.648Z,11.57
2018-02-22T15:54:18.718Z,13.00
2018-02-22T15:56:47.191Z,16.67
2018-02-22T15:59:15.674Z,13.30
2018-02-22T16:01:44.883Z,13.50
2018-02-22T16:04:13.495Z,11.93
2018-02-22T16:06:41.836Z,13.77
2018-02-22T16:09:10.192Z,16.63
2018-02-22T16:11:38.517Z,13.90
2018-02-22T16:14:06.884Z,13.10
2018-02-22T16:16:37.286Z,15.73
2018-02-22T16:19:09.480Z,12.87
2018-02-22T16:21:38.337Z,9.10
2018-02-22T16:24:06.783Z,10.07
2018-02-22T16:26:35.124Z,9.33
2018-02-22T16:29:03.576Z,11.80
2018-02-22T16:31:31.987Z,24.13
2018-02-22T16:34:00.756Z,14.67
2018-02-22T16:36:29.235Z,22.27
2018-02-22T16:38:57.550Z,11.00
2018-02-22T16:41:25.939Z,10.87
2018-02-22T16:43:54.247Z,12.73
2018-02-22T16:46:22.750Z,13.47
2018-02-22T16:48:51.095Z,11.57
2018-02-22T16:51:19.478Z,14.47
2018-02-22T16:53:47.930Z,18.07
2018-02-22T16:56:16.433Z,14.00
2018-02-22T16:58:44.719Z,13.97
2018-02-22T17:01:13.442Z,13.20
2018-02-22T17:03:41.780Z,18.77
2018-02-22T17:06:10.411Z,16.20
2018-02-22T17:08:38.948Z,18.67
2018-02-22T17:11:07.265Z,14.60
2018-02-22T17:13:35.583Z,14.73
2018-02-22T17:16:04.098Z,17.17
2018-02-22T17:18:32.528Z,18.03
2018-02-22T17:21:01.011Z,19.60
2018-02-22T17:23:29.549Z,15.87
2018-02-22T17:26:04.036Z,15.97
2018-02-22T17:28:37.782Z,15.47
2018-02-22T17:31:11.364Z,16.70
2018-02-22T17:33:39.782Z,14.50
2018-02-22T17:36:08.160Z,16.20
2018-02-22T17:38:36.844Z,16.37
2018-02-22T17:41:05.191Z,16.93
2018-02-22T17:43:33.829Z,14.93
2018-02-22T17:46:02.499Z,14.00
2018-02-22T17:48:31.281Z,13.73
2018-02-22T17:50:59.663Z,17.00
2018-02-22T17:53:28.002Z,14.33
2018-02-22T17:55:58.663Z,16.37
2018-02-22T17:58:27.266Z,16.10
2018-02-22T18:00:55.577Z,16.80
2018-02-22T18:03:24.018Z,15.53
2018-02-22T18:05:52.412Z,15.13
2018-02-22T18:08:23.410Z,13.27
2018-02-22T18:10:52.184Z,15.93
2018-02-22T18:13:20.536Z,17.03
2018-02-22T18:15:49.038Z,18.37
2018-02-22T18:18:17.336Z,17.07
2018-02-22T18:20:45.808Z,16.37
2018-02-22T18:23:14.160Z,17.60
2018-02-22T18:25:43.166Z,16.90
2018-02-22T18:28:11.471Z,18.57
2018-02-22T18:30:39.854Z,15.07
2018-02-22T18:33:08.217Z,16.33
2018-02-22T18:35:36.572Z,17.40
2018-02-22T18:38:04.931Z,16.30
2018-02-22T18:40:37.454Z,17.80
2018-02-22T18:43:10.488Z,18.00
2018-02-22T18:45:38.915Z,17.60
2018-02-22T18:48:07.389Z,14.53
2018-02-22T18:50:35.783Z,20.70
2018-02-22T18:53:04.114Z,10.70
2018-02-22T18:55:32.722Z,13.27
2018-02-22T18:58:01.036Z,11.97
2018-02-22T19:00:30.752Z,14.90
2018-02-22T19:02:59.291Z,14.27
2018-02-22T19:05:27.965Z,14.57
2018-02-22T19:07:56.407Z,13.87
2018-02-22T19:10:24.745Z,15.23
2018-02-22T19:12:53.023Z,13.87
2018-02-22T19:15:21.608Z,16.53
2018-02-22T19:17:49.951Z,16.13
2018-02-22T19:20:18.722Z,14.60
2018-02-22T19:22:46.985Z,13.70
2018-02-22T19:25:15.339Z,11.60
2018-02-22T19:27:43.735Z,11.93
2018-02-22T19:30:12.256Z,12.40
2018-02-22T19:32:40.769Z,10.73
2018-02-22T19:35:09.187Z,11.97
2018-02-22T19:37:37.730Z,11.80
2018-02-22T19:40:06.058Z,10.30
2018-02-22T19:42:34.527Z,10.83
2018-02-22T19:45:03.096Z,8.57
2018-02-22T19:47:31.624Z,15.20
2018-02-22T19:49:59.916Z,11.40
2018-02-22T19:52:28.272Z,10.47
2018-02-22T19:54:56.582Z,8.43
2018-02-22T19:57:25.179Z,10.47
2018-02-22T19:59:53.590Z,12.13
2018-02-22T20:02:22.104Z,7.60
2018-02-22T20:04:50.390Z,9.17
2018-02-22T20:07:18.969Z,9.73
2018-02-22T20:09:47.630Z,9.53
2018-02-22T20:12:16.311Z,11.97
2018-02-22T20:14:44.582Z,11.00
2018-02-22T20:17:13.767Z,11.07
2018-02-22T20:19:42.059Z,7.47
2018-02-22T20:22:10.433Z,8.57
2018-02-22T20:24:38.956Z,9.57
2018-02-22T20:27:07.503Z,9.93
2018-02-22T20:29:35.938Z,9.00
2018-02-22T20:32:04.440Z,13.90
2018-02-22T20:34:33.926Z,10.57
2018-02-22T20:37:02.264Z,10.47
2018-02-22T20:39:30.772Z,10.63
2018-02-22T20:41:59.104Z,17.63
2018-02-22T20:44:27.415Z,10.87
2018-02-22T20:46:55.773Z,11.60
2018-02-22T20:49:24.280Z,10.67
2018-02-22T20:51:52.776Z,9.03
2018-02-22T20:54:21.423Z,10.50
2018-02-22T20:56:49.778Z,13.00
2018-02-22T20:59:18.252Z,14.93
2018-02-22T21:01:47.176Z,11.43
2018-02-22T21:04:15.872Z,14.20
2018-02-22T21:06:48.415Z,9.37
2018-02-22T21:09:19.242Z,15.23
2018-02-22T21:11:49.254Z,13.33
2018-02-22T21:14:17.571Z,12.00
2018-02-22T21:16:46.116Z,12.10
2018-02-22T21:19:14.415Z,15.53
2018-02-22T21:21:42.975Z,13.93
2018-02-22T21:24:11.447Z,14.53
2018-02-22T21:26:39.758Z,17.67
2018-02-22T21:29:08.149Z,17.30
2018-02-22T21:31:36.480Z,14.67
2018-02-22T21:34:04.767Z,16.30
2018-02-22T21:36:33.103Z,18.83
2018-02-22T21:39:01.538Z,15.60
2018-02-22T21:41:30.048Z,17.40
2018-02-22T21:43:58.543Z,12.57
2018-02-22T21:46:26.907Z,14.43
2018-02-22T21:48:55.199Z,16.20
2018-02-22T21:51:23.754Z,14.53
2018-02-22T21:53:52.406Z,15.50
2018-02-22T21:56:20.738Z,17.70
2018-02-22T21:58:49.340Z,21.77
2018-02-22T22:01:19.948Z,17.77
2018-02-22T22:03:50.360Z,17.40
2018-02-22T22:06:22.960Z,19.47
2018-02-22T22:08:55.033Z,18.10
2018-02-22T22:11:23.510Z,18.20
2018-02-22T22:13:54.779Z,16.70
2018-02-22T22:16:23.388Z,17.87
2018-02-22T22:18:52.071Z,18.90
2018-02-22T22:21:20.712Z,16.03
2018-02-22T22:23:48.975Z,15.20
2018-02-22T22:26:17.423Z,16.40
2018-02-22T22:28:45.880Z,15.53
2018-02-22T22:31:14.515Z,17.30
2018-02-22T22:33:42.827Z,14.77
2018-02-22T22:36:11.128Z,17.57
2018-02-22T22:38:39.831Z,15.93
2018-02-22T22:41:08.151Z,18.40
2018-02-22T22:43:36.583Z,19.73
2018-02-22T22:46:04.892Z,16.77
2018-02-22T22:48:33.352Z,20.90
2018-02-22T22:51:06.074Z,16.00
2018-02-22T22:53:35.293Z,15.07
2018-02-22T22:56:03.591Z,15.97
2018-02-22T22:58:33.073Z,12.40
2018-02-22T23:01:01.454Z,12.70
2018-02-22T23:03:32.528Z,10.83
2018-02-22T23:06:01.158Z,12.63
2018-02-22T23:08:29.407Z,15.10
2018-02-22T23:10:57.742Z,10.67
2018-02-22T23:13:26.119Z,11.57
2018-02-22T23:15:54.639Z,15.43
2018-02-22T23:18:22.919Z,10.60
2018-02-22T23:20:51.395Z,15.10
2018-02-22T23:23:19.693Z,11.07
2018-02-22T23:25:48.047Z,10.43
2018-02-22T23:28:16.330Z,11.37
2018-02-22T23:30:44.836Z,13.67
2018-02-22T23:33:13.167Z,12.23
2018-02-22T23:35:41.579Z,13.63
2018-02-22T23:38:10.199Z,11.30
2018-02-22T23:40:38.826Z,14.70
2018-02-22T23:43:07.313Z,15.73
2018-02-22T23:45:35.638Z,17.13
2018-02-22T23:48:03.978Z,17.30
2018-02-22T23:50:32.333Z,12.87
2018-02-22T23:53:00.808Z,11.77
2018-02-22T23:55:29.307Z,12.97
2018-02-22T23:57:57.595Z,10.63
